createdAt,value
2023-04-15T00:01:00.422Z,6.67
2023-04-15T00:03:30.235Z,7.30
2023-04-15T00:06:00.720Z,9.13
2023-04-15T00:08:30.397Z,7.40
2023-04-15T00:11:03.144Z,9.10
2023-04-15T00:13:35.428Z,7.83
2023-04-15T00:16:05.094Z,9.67
2023-04-15T00:18:34.598Z,7.30
2023-04-15T00:21:04.612Z,6.80
2023-04-15T00:23:34.330Z,6.97
2023-04-15T00:26:03.794Z,7.80
2023-04-15T00:28:35.881Z,6.60
2023-04-15T00:31:05.397Z,11.53
2023-04-15T00:33:36.834Z,6.43
2023-04-15T00:36:07.242Z,7.70
2023-04-15T00:38:36.773Z,7.93
2023-04-15T00:41:06.751Z,7.43
2023-04-15T00:43:38.875Z,7.93
2023-04-15T00:46:09.670Z,8.67
2023-04-15T00:48:39.474Z,11.63
2023-04-15T00:51:09.771Z,12.30
2023-04-15T00:53:39.400Z,10.23
2023-04-15T00:56:09.801Z,9.97
2023-04-15T00:58:41.934Z,10.23
2023-04-15T01:01:11.611Z,10.87
2023-04-15T01:03:41.687Z,11.70
2023-04-15T01:06:11.511Z,9.40
2023-04-15T01:08:41.529Z,11.30
2023-04-15T01:11:11.383Z,9.67
2023-04-15T01:13:43.588Z,10.80
2023-04-15T01:16:14.107Z,12.87
2023-04-15T01:18:43.936Z,9.40
2023-04-15T01:21:13.626Z,14.80
2023-04-15T01:23:43.449Z,11.97
2023-04-15T01:26:16.437Z,12.10
2023-04-15T01:28:46.126Z,11.80
2023-04-15T01:31:17.408Z,10.30
2023-04-15T01:33:47.170Z,12.47
2023-04-15T01:36:16.651Z,11.30
2023-04-15T01:38:46.289Z,11.83
2023-04-15T01:41:20.214Z,10.93
2023-04-15T01:43:49.941Z,10.67
2023-04-15T01:46:19.491Z,10.87
2023-04-15T01:48:49.088Z,15.00
2023-04-15T01:51:18.661Z,11.40
2023-04-15T01:53:48.187Z,12.50
2023-04-15T01:56:20.291Z,13.43
2023-04-15T01:58:49.928Z,12.03
2023-04-15T02:01:19.995Z,11.97
2023-04-15T02:03:50.132Z,12.63
2023-04-15T02:06:19.726Z,11.67
2023-04-15T02:08:49.566Z,11.97
2023-04-15T02:11:21.598Z,16.03
2023-04-15T02:13:53.964Z,13.40
2023-04-15T02:16:23.581Z,13.33
2023-04-15T02:18:53.100Z,13.33
2023-04-15T02:21:22.787Z,11.60
2023-04-15T02:23:54.184Z,13.90
2023-04-15T02:26:26.455Z,13.70
2023-04-15T02:28:55.972Z,13.20
2023-04-15T02:31:25.568Z,15.00
2023-04-15T02:33:55.117Z,13.30
2023-04-15T02:36:24.579Z,14.47
2023-04-15T02:38:54.066Z,14.00
2023-04-15T02:41:27.954Z,15.43
2023-04-15T02:43:57.510Z,16.70
2023-04-15T02:46:27.650Z,15.97
2023-04-15T02:48:57.209Z,16.47
2023-04-15T02:51:26.721Z,18.60
2023-04-15T02:53:56.793Z,15.83
2023-04-15T02:56:28.841Z,15.70
2023-04-15T02:58:58.572Z,16.30
2023-04-15T03:01:28.176Z,18.90
2023-04-15T03:03:57.704Z,16.30
2023-04-15T03:06:27.369Z,17.10
2023-04-15T03:08:56.956Z,17.30
2023-04-15T03:11:29.351Z,17.63
2023-04-15T03:13:58.856Z,19.47
2023-04-15T03:16:28.624Z,17.87
2023-04-15T03:18:58.108Z,19.83
2023-04-15T03:21:27.781Z,20.20
2023-04-15T03:23:57.422Z,20.97
2023-04-15T03:26:31.166Z,19.43
2023-04-15T03:29:01.517Z,17.57
2023-04-15T03:31:31.312Z,19.30
2023-04-15T03:34:00.971Z,22.57
2023-04-15T03:36:33.059Z,22.30
2023-04-15T03:39:02.685Z,23.60
2023-04-15T03:41:35.699Z,18.77
2023-04-15T03:44:05.483Z,23.90
2023-04-15T03:46:35.173Z,30.20
2023-04-15T03:49:05.156Z,25.97
2023-04-15T03:51:34.922Z,27.37
2023-04-15T03:54:05.044Z,28.57
2023-04-15T03:56:37.182Z,27.40
2023-04-15T03:59:06.878Z,30.90
2023-04-15T04:01:36.446Z,29.10
2023-04-15T04:04:06.017Z,31.10
2023-04-15T04:06:35.605Z,28.73
2023-04-15T04:09:05.480Z,27.03
2023-04-15T04:11:37.853Z,28.77
2023-04-15T04:14:07.313Z,30.73
2023-04-15T04:16:36.884Z,33.23
2023-04-15T04:19:06.512Z,31.10
2023-04-15T04:21:36.677Z,30.90
2023-04-15T04:24:06.531Z,34.93
2023-04-15T04:26:38.604Z,66.73
2023-04-15T04:29:08.192Z,41.20
2023-04-15T04:31:38.112Z,73.97
2023-04-15T04:34:07.934Z,82.13
2023-04-15T04:36:37.387Z,53.20
2023-04-15T04:39:07.311Z,57.20
2023-04-15T04:41:39.436Z,60.17
2023-04-15T04:44:08.935Z,45.30
2023-04-15T04:46:38.404Z,44.57
2023-04-15T04:49:07.901Z,60.53
2023-04-15T04:51:37.397Z,53.00
2023-04-15T04:54:07.139Z,62.57
2023-04-15T04:56:39.927Z,46.00
2023-04-15T04:59:09.567Z,44.70
2023-04-15T05:01:39.169Z,51.30
2023-04-15T05:04:08.976Z,42.33
2023-04-15T05:06:38.688Z,45.83
2023-04-15T05:09:08.249Z,46.03
2023-04-15T05:11:40.339Z,41.97
2023-04-15T05:14:09.933Z,46.40
2023-04-15T05:16:39.447Z,44.13
2023-04-15T05:19:08.906Z,45.30
2023-04-15T05:21:39.537Z,44.70
2023-04-15T05:24:09.599Z,51.33
2023-04-15T05:26:42.822Z,43.90
2023-04-15T05:29:12.520Z,47.03
2023-04-15T05:31:42.342Z,42.90
2023-04-15T05:34:12.419Z,45.00
2023-04-15T05:36:41.946Z,41.80
2023-04-15T05:39:11.431Z,41.63
2023-04-15T05:41:43.552Z,43.90
2023-04-15T05:44:13.055Z,44.93
2023-04-15T05:46:42.613Z,37.20
2023-04-15T05:49:12.183Z,43.63
2023-04-15T05:51:41.629Z,46.80
2023-04-15T05:54:11.241Z,42.93
2023-04-15T05:56:43.362Z,42.20
2023-04-15T05:59:12.826Z,42.33
2023-04-15T06:01:42.301Z,51.67
2023-04-15T06:04:11.876Z,49.93
2023-04-15T06:06:42.118Z,50.13
2023-04-15T06:09:11.860Z,48.43
2023-04-15T06:11:44.135Z,46.10
2023-04-15T06:14:13.690Z,56.80
2023-04-15T06:16:43.313Z,60.00
2023-04-15T06:19:12.913Z,50.40
2023-04-15T06:21:42.410Z,53.70
2023-04-15T06:24:12.007Z,58.83
2023-04-15T06:26:44.097Z,58.83
2023-04-15T06:29:13.589Z,62.07
2023-04-15T06:31:43.083Z,61.30
2023-04-15T06:34:12.550Z,78.27
2023-04-15T06:36:42.021Z,63.13
2023-04-15T06:39:11.524Z,69.77
2023-04-15T06:41:40.990Z,86.93
2023-04-15T06:44:13.127Z,67.87
2023-04-15T06:46:42.634Z,67.20
2023-04-15T06:49:12.459Z,73.57
2023-04-15T06:51:42.078Z,64.73
2023-04-15T06:54:11.668Z,75.03
2023-04-15T06:56:42.107Z,80.93
2023-04-15T06:59:14.385Z,91.50
2023-04-15T07:01:44.074Z,82.93
2023-04-15T07:04:13.898Z,75.70
2023-04-15T07:06:43.424Z,73.30
2023-04-15T07:09:12.957Z,72.37
2023-04-15T07:11:42.504Z,92.30
2023-04-15T07:14:14.546Z,76.57
2023-04-15T07:16:44.072Z,70.13
2023-04-15T07:19:13.614Z,76.47
2023-04-15T07:21:43.124Z,80.13
2023-04-15T07:24:13.243Z,93.13
2023-04-15T07:26:42.772Z,66.63
2023-04-15T07:29:14.896Z,69.40
2023-04-15T07:31:44.505Z,71.77
2023-04-15T07:34:13.960Z,70.27
2023-04-15T07:36:43.454Z,105.20
2023-04-15T07:39:12.965Z,81.23
2023-04-15T07:41:42.488Z,73.93
2023-04-15T07:44:14.545Z,78.37
2023-04-15T07:46:44.133Z,88.13
2023-04-15T07:49:13.631Z,71.30
2023-04-15T07:51:44.454Z,73.23
2023-04-15T07:54:14.225Z,126.83
2023-04-15T07:56:43.763Z,99.87
2023-04-15T07:59:17.928Z,71.97
2023-04-15T08:01:47.441Z,72.87
2023-04-15T08:04:17.046Z,71.37
2023-04-15T08:06:48.406Z,72.90
2023-04-15T08:09:17.922Z,74.17
2023-04-15T08:11:47.453Z,69.00
2023-04-15T08:14:19.673Z,71.03
2023-04-15T08:16:49.243Z,69.40
2023-04-15T08:19:18.787Z,92.33
2023-04-15T08:21:48.320Z,68.27
2023-04-15T08:24:17.837Z,65.70
2023-04-15T08:26:52.292Z,62.47
2023-04-15T08:29:24.382Z,69.80
2023-04-15T08:31:54.078Z,86.93
2023-04-15T08:34:23.711Z,67.00
2023-04-15T08:36:53.217Z,55.60
2023-04-15T08:39:22.733Z,66.50
2023-04-15T08:41:56.276Z,60.13
2023-04-15T08:44:28.439Z,64.97
2023-04-15T08:46:59.948Z,61.57
2023-04-15T08:49:30.133Z,65.77
2023-04-15T08:52:01.673Z,60.40
2023-04-15T08:54:31.289Z,69.60
2023-04-15T08:57:02.464Z,61.43
2023-04-15T08:59:34.765Z,65.13
2023-04-15T09:02:04.385Z,65.87
2023-04-15T09:04:34.067Z,70.37
2023-04-15T09:07:03.550Z,61.20
2023-04-15T09:09:33.098Z,66.07
2023-04-15T09:12:04.397Z,62.30
2023-04-15T09:14:36.714Z,66.00
2023-04-15T09:17:07.320Z,70.07
2023-04-15T09:19:36.823Z,65.57
2023-04-15T09:22:06.611Z,63.93
2023-04-15T09:24:43.390Z,58.57
2023-04-15T09:27:13.022Z,63.37
2023-04-15T09:29:46.190Z,62.77
2023-04-15T09:32:16.737Z,59.10
2023-04-15T09:34:46.725Z,60.87
2023-04-15T09:37:31.670Z,58.27
2023-04-15T09:40:01.752Z,55.37
2023-04-15T09:42:32.656Z,55.00
2023-04-15T09:45:14.275Z,56.63
2023-04-15T09:47:44.002Z,51.37
2023-04-15T09:50:14.767Z,47.80
2023-04-15T09:52:45.826Z,57.07
2023-04-15T09:55:17.214Z,52.70
2023-04-15T09:57:47.328Z,48.40
2023-04-15T10:00:20.081Z,55.40
2023-04-15T10:02:50.640Z,57.87
2023-04-15T10:05:20.665Z,54.93
2023-04-15T10:07:50.308Z,52.17
2023-04-15T10:10:19.926Z,70.13
2023-04-15T10:12:49.457Z,47.93
2023-04-15T10:15:24.422Z,64.77
2023-04-15T10:17:54.048Z,59.43
2023-04-15T10:20:23.945Z,52.03
2023-04-15T10:22:54.356Z,57.20
2023-04-15T10:25:24.492Z,56.57
2023-04-15T10:27:54.947Z,50.33
2023-04-15T10:30:27.121Z,54.30
2023-04-15T10:32:56.868Z,39.40
2023-04-15T10:35:26.786Z,38.47
2023-04-15T10:37:56.361Z,41.33
2023-04-15T10:40:32.074Z,36.77
2023-04-15T10:43:02.721Z,44.70
2023-04-15T10:45:36.850Z,37.13
2023-04-15T10:48:08.094Z,34.37
2023-04-15T10:50:37.850Z,32.10
2023-04-15T10:53:07.597Z,25.47
2023-04-15T10:55:37.643Z,26.27
2023-04-15T10:58:07.801Z,24.37
2023-04-15T11:00:40.637Z,20.47
2023-04-15T11:03:11.182Z,23.27
2023-04-15T11:05:53.850Z,23.37
2023-04-15T11:08:23.971Z,21.03
2023-04-15T11:10:55.614Z,22.10
2023-04-15T11:13:27.404Z,18.43
2023-04-15T11:16:02.155Z,18.13
2023-04-15T11:18:33.581Z,17.13
2023-04-15T11:21:05.155Z,20.10
2023-04-15T11:23:37.351Z,21.27
2023-04-15T11:26:09.942Z,16.60
2023-04-15T11:28:40.980Z,21.40
2023-04-15T11:31:14.867Z,19.30
2023-04-15T11:33:58.255Z,18.13
2023-04-15T11:36:29.958Z,18.97
2023-04-15T11:39:01.284Z,15.57
2023-04-15T11:41:30.822Z,18.73
2023-04-15T11:44:00.447Z,16.20
2023-04-15T11:46:35.517Z,16.03
2023-04-15T11:49:05.280Z,17.90
2023-04-15T11:51:35.775Z,16.43
2023-04-15T11:54:05.685Z,21.40
2023-04-15T11:56:35.620Z,19.53
2023-04-15T11:59:05.156Z,18.50
2023-04-15T12:01:39.578Z,15.67
2023-04-15T12:04:14.957Z,20.20
2023-04-15T12:06:44.641Z,17.80
2023-04-15T12:09:15.803Z,14.70
2023-04-15T12:11:49.898Z,17.33
2023-04-15T12:14:23.633Z,20.40
2023-04-15T12:16:58.611Z,17.43
2023-04-15T12:19:29.598Z,22.80
2023-04-15T12:22:02.507Z,19.70
2023-04-15T12:24:34.609Z,45.27
2023-04-15T12:27:08.520Z,199.40
2023-04-15T12:29:39.229Z,26.67
2023-04-15T12:32:12.650Z,30.23
2023-04-15T12:34:43.648Z,21.57
2023-04-15T12:37:14.557Z,21.10
2023-04-15T12:39:45.674Z,22.97
2023-04-15T12:42:15.868Z,33.73
2023-04-15T12:44:45.445Z,19.43
2023-04-15T12:47:17.595Z,27.50
2023-04-15T12:49:47.252Z,25.80
2023-04-15T12:52:16.827Z,21.27
2023-04-15T12:54:46.403Z,19.10
2023-04-15T12:57:15.893Z,19.83
2023-04-15T12:59:45.671Z,16.30
2023-04-15T13:02:17.828Z,19.70
2023-04-15T13:04:47.540Z,17.63
2023-04-15T13:07:17.095Z,15.57
2023-04-15T13:09:46.739Z,18.57
2023-04-15T13:12:16.576Z,15.30
2023-04-15T13:14:46.193Z,19.77
2023-04-15T13:17:20.570Z,19.67
2023-04-15T13:19:50.113Z,18.47
2023-04-15T13:22:19.595Z,16.80
2023-04-15T13:24:49.729Z,17.30
2023-04-15T13:27:19.256Z,28.53
2023-04-15T13:29:48.751Z,19.90
2023-04-15T13:32:21.020Z,14.00
2023-04-15T13:34:50.800Z,14.47
2023-04-15T13:37:20.565Z,13.90
2023-04-15T13:39:50.120Z,13.97
2023-04-15T13:42:19.690Z,18.33
2023-04-15T13:44:49.234Z,18.30
2023-04-15T13:47:22.223Z,14.50
2023-04-15T13:49:53.048Z,19.10
2023-04-15T13:52:22.637Z,16.70
2023-04-15T13:55:11.750Z,16.70
2023-04-15T13:57:41.762Z,14.80
2023-04-15T14:00:12.710Z,16.50
2023-04-15T14:02:44.991Z,14.30
2023-04-15T14:05:14.763Z,23.63
2023-04-15T14:07:44.300Z,15.33
2023-04-15T14:10:13.815Z,14.07
2023-04-15T14:12:43.866Z,18.00
2023-04-15T14:15:13.718Z,18.80
2023-04-15T14:17:45.936Z,47.83
2023-04-15T14:20:17.173Z,47.77
2023-04-15T14:22:47.047Z,15.90
2023-04-15T14:25:30.539Z,17.40
2023-04-15T14:28:03.603Z,19.03
2023-04-15T14:30:33.306Z,23.93
2023-04-15T14:33:05.556Z,20.00
2023-04-15T14:35:35.016Z,18.83
2023-04-15T14:38:06.074Z,16.77
2023-04-15T14:40:36.413Z,31.83
2023-04-15T14:43:05.992Z,23.20
2023-04-15T14:45:36.495Z,28.83
2023-04-15T14:48:10.045Z,26.67
2023-04-15T14:50:39.649Z,20.07
2023-04-15T14:53:09.180Z,26.23
2023-04-15T14:55:38.727Z,36.30
2023-04-15T14:58:09.595Z,21.03
2023-04-15T15:00:41.937Z,21.70
2023-04-15T15:03:15.300Z,21.50
2023-04-15T15:05:46.366Z,23.67
2023-04-15T15:08:16.693Z,47.50
2023-04-15T15:10:48.497Z,191.87
2023-04-15T15:13:19.993Z,49.20
2023-04-15T15:15:50.952Z,86.27
2023-04-15T15:18:23.136Z,27.07
2023-04-15T15:20:52.643Z,16.07
2023-04-15T15:23:22.136Z,28.07
2023-04-15T15:25:51.721Z,16.80
2023-04-15T15:28:21.894Z,17.50
2023-04-15T15:30:51.393Z,24.40
2023-04-15T15:33:23.625Z,20.70
2023-04-15T15:35:53.646Z,27.53
2023-04-15T15:38:23.118Z,17.97
2023-04-15T15:40:53.025Z,19.43
2023-04-15T15:43:22.708Z,19.43
2023-04-15T15:45:55.543Z,22.67
2023-04-15T15:48:28.420Z,16.30
2023-04-15T15:50:57.985Z,15.60
2023-04-15T15:53:27.561Z,17.87
2023-04-15T15:55:57.125Z,21.63
2023-04-15T15:58:26.628Z,19.30
2023-04-15T16:00:56.145Z,23.70
2023-04-15T16:03:28.464Z,20.33
2023-04-15T16:05:58.118Z,38.67
2023-04-15T16:08:27.590Z,27.83
2023-04-15T16:10:57.508Z,23.87
2023-04-15T16:13:27.100Z,25.37
2023-04-15T16:15:56.599Z,20.77
2023-04-15T16:18:28.656Z,23.77
2023-04-15T16:20:58.201Z,23.60
2023-04-15T16:23:27.785Z,33.63
2023-04-15T16:25:57.761Z,18.40
2023-04-15T16:28:27.508Z,19.90
2023-04-15T16:30:57.522Z,21.83
2023-04-15T16:33:29.660Z,24.23
2023-04-15T16:35:59.222Z,21.77
2023-04-15T16:38:28.850Z,26.87
2023-04-15T16:40:59.238Z,30.57
2023-04-15T16:43:29.110Z,23.60
2023-04-15T16:45:58.624Z,23.97
2023-04-15T16:48:30.967Z,27.77
2023-04-15T16:51:00.797Z,25.60
2023-04-15T16:53:30.264Z,28.87
2023-04-15T16:55:59.779Z,85.67
2023-04-15T16:58:29.295Z,30.87
2023-04-15T17:00:58.873Z,52.93
2023-04-15T17:03:31.189Z,45.70
2023-04-15T17:06:00.949Z,42.57
2023-04-15T17:08:30.461Z,44.90
2023-04-15T17:11:00.315Z,32.90
2023-04-15T17:13:29.883Z,34.17
2023-04-15T17:15:59.354Z,39.07
2023-04-15T17:18:31.501Z,28.07
2023-04-15T17:21:01.080Z,34.47
2023-04-15T17:23:31.077Z,31.53
2023-04-15T17:26:00.574Z,28.90
2023-04-15T17:28:30.040Z,22.90
2023-04-15T17:30:59.568Z,26.60
2023-04-15T17:34:00.788Z,26.97
2023-04-15T17:36:21.303Z,26.87
2023-04-15T17:38:50.798Z,35.10
2023-04-15T17:41:20.535Z,32.70
2023-04-15T17:43:50.092Z,29.20
2023-04-15T17:46:19.618Z,35.77
2023-04-15T17:48:51.731Z,26.30
2023-04-15T17:51:21.895Z,44.13
2023-04-15T17:53:51.409Z,26.93
2023-04-15T17:56:20.929Z,44.27
2023-04-15T17:58:50.451Z,30.33
2023-04-15T18:01:19.921Z,32.87
2023-04-15T18:03:52.189Z,49.87
2023-04-15T18:06:22.503Z,104.17
2023-04-15T18:08:51.965Z,27.77
2023-04-15T18:11:21.446Z,40.87
2023-04-15T18:13:50.905Z,61.80
2023-04-15T18:19:13.994Z,38.23
2023-04-15T18:21:43.518Z,28.60
2023-04-15T18:24:13.046Z,27.43
2023-04-15T18:26:42.649Z,34.60
2023-04-15T18:29:13.104Z,34.63
2023-04-15T18:31:42.655Z,33.80
2023-04-15T18:34:14.783Z,37.67
2023-04-15T18:36:47.405Z,45.27
2023-04-15T18:39:16.960Z,28.50
2023-04-15T18:41:46.586Z,32.67
2023-04-15T18:44:16.190Z,30.43
2023-04-15T18:46:45.708Z,30.67
2023-04-15T18:49:17.891Z,30.50
2023-04-15T18:51:47.407Z,31.37
2023-04-15T18:54:17.007Z,35.67
2023-04-15T18:56:46.899Z,31.40
2023-04-15T18:59:29.729Z,29.77
2023-04-15T19:02:01.340Z,37.37
2023-04-15T19:04:33.549Z,26.37
2023-04-15T19:07:03.082Z,27.00
2023-04-15T19:09:32.626Z,30.50
2023-04-15T19:12:02.607Z,45.70
2023-04-15T19:14:32.225Z,33.50
2023-04-15T19:17:13.574Z,28.27
2023-04-15T19:19:45.764Z,30.73
2023-04-15T19:22:15.361Z,33.40
2023-04-15T19:24:45.042Z,35.33
2023-04-15T19:27:14.541Z,78.67
2023-04-15T19:29:44.017Z,37.40
2023-04-15T19:32:14.415Z,54.67
2023-04-15T19:34:46.559Z,61.43
2023-04-15T19:37:16.278Z,39.53
2023-04-15T19:39:46.243Z,28.17
2023-04-15T19:42:15.790Z,30.27
2023-04-15T19:44:45.270Z,32.10
2023-04-15T19:47:15.048Z,31.87
2023-04-15T19:49:47.189Z,30.67
2023-04-15T19:52:16.877Z,37.03
2023-04-15T19:54:46.350Z,37.97
2023-04-15T19:57:15.870Z,37.43
2023-04-15T19:59:45.423Z,23.57
2023-04-15T20:02:15.169Z,26.50
2023-04-15T20:04:47.368Z,27.97
2023-04-15T20:07:16.951Z,32.73
2023-04-15T20:09:46.646Z,26.00
2023-04-15T20:12:51.019Z,28.77
2023-04-15T20:15:05.838Z,25.63
2023-04-15T20:17:35.462Z,46.60
2023-04-15T20:20:09.096Z,37.63
2023-04-15T20:22:38.670Z,36.53
2023-04-15T20:25:09.289Z,34.10
2023-04-15T20:27:38.827Z,41.97
2023-04-15T20:30:09.878Z,34.80
2023-04-15T20:32:39.421Z,55.07
2023-04-15T20:35:12.079Z,27.77
2023-04-15T20:37:41.594Z,38.40
2023-04-15T20:40:12.679Z,30.27
2023-04-15T20:42:43.784Z,36.03
2023-04-15T20:45:13.547Z,39.07
2023-04-15T20:47:45.799Z,36.60
2023-04-15T20:50:17.982Z,33.47
2023-04-15T20:52:47.541Z,28.57
2023-04-15T20:55:17.047Z,39.00
2023-04-15T20:57:46.660Z,42.30
2023-04-15T21:00:16.437Z,63.33
2023-04-15T21:02:46.171Z,54.93
2023-04-15T21:05:18.382Z,29.30
2023-04-15T21:07:47.862Z,38.43
2023-04-15T21:10:17.434Z,31.43
2023-04-15T21:12:46.941Z,30.97
2023-04-15T21:15:16.447Z,66.23
2023-04-15T21:17:45.951Z,28.87
2023-04-15T21:20:18.495Z,41.17
2023-04-15T21:22:48.078Z,61.40
2023-04-15T21:25:17.571Z,34.20
2023-04-15T21:27:47.025Z,31.80
2023-04-15T21:30:16.643Z,44.03
2023-04-15T21:32:46.185Z,31.80
2023-04-15T21:35:18.441Z,28.07
2023-04-15T21:37:47.909Z,30.30
2023-04-15T21:40:18.677Z,40.87
2023-04-15T21:42:48.988Z,42.33
2023-04-15T21:45:18.707Z,34.43
2023-04-15T21:47:57.023Z,27.40
2023-04-15T21:50:39.817Z,39.50
2023-04-15T21:53:10.924Z,116.83
2023-04-15T21:55:40.563Z,31.00
2023-04-15T21:58:10.061Z,30.60
2023-04-15T22:00:40.910Z,38.77
2023-04-15T22:03:10.760Z,29.67
2023-04-15T22:05:42.949Z,34.43
2023-04-15T22:08:12.466Z,37.10
2023-04-15T22:10:41.948Z,36.43
2023-04-15T22:13:12.923Z,30.50
2023-04-15T22:15:42.397Z,34.13
2023-04-15T22:18:11.894Z,31.57
2023-04-15T22:20:44.042Z,77.77
2023-04-15T22:23:13.512Z,29.53
2023-04-15T22:25:42.958Z,29.47
2023-04-15T22:28:12.450Z,31.27
2023-04-15T22:30:42.581Z,33.60
2023-04-15T22:33:12.675Z,31.00
2023-04-15T22:35:44.738Z,31.67
2023-04-15T22:38:14.276Z,32.30
2023-04-15T22:40:43.736Z,27.13
2023-04-15T22:43:13.307Z,29.27
2023-04-15T22:45:42.756Z,32.60
2023-04-15T22:48:12.282Z,31.77
2023-04-15T22:50:44.405Z,29.93
2023-04-15T22:53:13.938Z,33.70
2023-04-15T22:55:47.444Z,31.37
2023-04-15T22:58:17.270Z,33.27
2023-04-15T23:00:46.890Z,30.60
2023-04-15T23:03:16.566Z,32.33
2023-04-15T23:05:49.731Z,40.67
2023-04-15T23:08:19.239Z,31.70
2023-04-15T23:10:50.463Z,32.67
2023-04-15T23:13:20.011Z,34.87
2023-04-15T23:15:49.580Z,33.27
2023-04-15T23:18:19.060Z,31.20
2023-04-15T23:20:51.310Z,32.63
2023-04-15T23:23:20.799Z,33.07
2023-04-15T23:25:50.576Z,33.20
2023-04-15T23:28:20.060Z,34.20
2023-04-15T23:30:49.546Z,38.10
2023-04-15T23:33:19.087Z,29.00
2023-04-15T23:35:51.236Z,27.33
2023-04-15T23:38:20.776Z,30.63
2023-04-15T23:40:50.295Z,30.30
2023-04-15T23:43:19.802Z,33.77
2023-04-15T23:45:49.566Z,31.17
2023-04-15T23:48:19.142Z,30.90
2023-04-15T23:50:51.286Z,25.63
2023-04-15T23:53:21.009Z,38.90
2023-04-15T23:55:51.363Z,38.07
2023-04-15T23:58:21.005Z,32.13
